Time;durP1;ratioP1;P1;durP2;ratioP2;P2;SDS_P1;SDS_P2;PMS_P1;PMS_P2;Temp;Humidity;BMP_temperature;BMP_pressure;BME280_temperature;BME280_humidity;BME280_pressure;Samples;Min_cycle;Max_cycle;Signal;HPM_P1;HPM_P2
2023/03/13 20:57:30;;;;;;;9.20;2.45;;;;;;;;;;5109774;27;20396;-57
2023/03/13 20:59:56;;;;;;;11.00;2.22;;;;;;;;;;5109837;28;20488;-58
2023/03/13 21:02:22;;;;;;;9.15;2.00;;;;;;;;;;5109745;28;20457;-57
2023/03/13 21:04:47;;;;;;;13.63;3.03;;;;;;;;;;5109782;28;20020;-58
2023/03/13 21:07:12;;;;;;;7.95;2.10;;;;;;;;;;5108406;28;20652;-58
2023/03/13 21:09:39;;;;;;;7.85;2.38;;;;;;;;;;5109462;28;20074;-61
2023/03/13 21:12:04;;;;;;;12.48;2.95;;;;;;;;;;5110437;28;20051;-57
2023/03/13 21:14:32;;;;;;;8.98;2.90;;;;;;;;;;5111041;28;20507;-56
2023/03/13 21:16:57;;;;;;;9.95;2.53;;;;;;;;;;5109978;28;20527;-57
2023/03/13 21:19:23;;;;;;;9.13;2.33;;;;;;;;;;5108890;28;20012;-58
2023/03/13 21:21:49;;;;;;;10.20;2.17;;;;;;;;;;5108845;28;20023;-57
2023/03/13 21:24:14;;;;;;;11.80;2.47;;;;;;;;;;5110178;28;20024;-57
2023/03/13 21:26:40;;;;;;;11.50;2.60;;;;;;;;;;5108880;28;20019;-57
2023/03/13 21:29:07;;;;;;;8.13;1.77;;;;;;;;;;5109570;28;20020;-56
2023/03/13 21:31:33;;;;;;;10.65;2.20;;;;;;;;;;5109701;28;20025;-57
2023/03/13 21:33:58;;;;;;;10.27;2.22;;;;;;;;;;5108895;28;20016;-57
2023/03/13 21:36:23;;;;;;;8.88;2.53;;;;;;;;;;5110101;28;20043;-56
2023/03/13 21:38:49;;;;;;;8.23;1.80;;;;;;;;;;5110691;28;20023;-56
2023/03/13 21:41:16;;;;;;;12.35;2.45;;;;;;;;;;5109608;28;20024;-56
2023/03/13 21:43:42;;;;;;;8.43;2.00;;;;;;;;;;5109581;28;20046;-56
2023/03/13 21:46:07;;;;;;;9.07;2.50;;;;;;;;;;5110185;28;20415;-57
2023/03/13 21:48:33;;;;;;;8.25;1.60;;;;;;;;;;5108881;28;20057;-56
2023/03/13 21:50:59;;;;;;;10.63;2.30;;;;;;;;;;5108050;28;20158;-56
2023/03/13 21:53:25;;;;;;;10.13;2.92;;;;;;;;;;5109513;28;20031;-56
2023/03/13 21:55:51;;;;;;;11.15;2.22;;;;;;;;;;5110952;28;20117;-56
2023/03/13 21:58:17;;;;;;;8.57;2.58;;;;;;;;;;5112237;28;20473;-56
2023/03/13 22:00:42;;;;;;;12.23;2.15;;;;;;;;;;5110608;28;20349;-55
2023/03/13 22:03:08;;;;;;;10.30;2.63;;;;;;;;;;5110119;28;20019;-57
2023/03/13 22:05:33;;;;;;;7.10;2.22;;;;;;;;;;5109821;28;20099;-57
2023/03/13 22:07:59;;;;;;;9.60;2.60;;;;;;;;;;5102419;28;20047;-57
2023/03/13 22:10:24;;;;;;;6.03;1.73;;;;;;;;;;5097684;28;20040;-57
2023/03/13 22:12:49;;;;;;;6.80;2.47;;;;;;;;;;5097102;28;20456;-57
2023/03/13 22:15:15;;;;;;;10.55;2.38;;;;;;;;;;5096731;28;20715;-58
2023/03/13 22:17:40;;;;;;;10.10;2.25;;;;;;;;;;5096132;28;20482;-56
2023/03/13 22:20:07;;;;;;;10.10;1.67;;;;;;;;;;5096074;28;20012;-56
2023/03/13 22:22:32;;;;;;;8.88;2.83;;;;;;;;;;5095762;28;20031;-55
2023/03/13 22:24:58;;;;;;;8.23;2.40;;;;;;;;;;5094517;28;20392;-56
2023/03/13 22:27:24;;;;;;;9.93;2.22;;;;;;;;;;5094421;28;20016;-57
2023/03/13 22:29:49;;;;;;;12.13;1.85;;;;;;;;;;5094584;28;20017;-58
2023/03/13 22:32:18;;;;;;;9.15;2.05;;;;;;;;;;5095602;28;20016;-58
2023/03/13 22:34:45;;;;;;;7.05;1.58;;;;;;;;;;5094138;28;20024;-58
2023/03/13 22:37:11;;;;;;;9.00;2.80;;;;;;;;;;5093525;28;20028;-57
2023/03/13 22:39:37;;;;;;;5.45;2.03;;;;;;;;;;5095075;28;20020;-56
2023/03/13 22:42:02;;;;;;;8.50;2.03;;;;;;;;;;5095020;28;20089;-56
2023/03/13 22:44:28;;;;;;;5.72;1.48;;;;;;;;;;5093884;28;20110;-56
2023/03/13 22:46:53;;;;;;;5.63;1.65;;;;;;;;;;5093737;28;20472;-57
2023/03/13 22:49:19;;;;;;;7.00;1.42;;;;;;;;;;5093616;28;20031;-56
2023/03/13 22:51:44;;;;;;;7.43;1.40;;;;;;;;;;5095110;28;20027;-56
2023/03/13 22:54:10;;;;;;;4.35;1.48;;;;;;;;;;5095034;28;20008;-57
2023/03/13 22:56:35;;;;;;;7.68;1.40;;;;;;;;;;5093021;28;20074;-56
2023/03/13 22:59:01;;;;;;;8.07;1.80;;;;;;;;;;5093312;28;20027;-57
2023/03/13 23:01:27;;;;;;;5.00;1.27;;;;;;;;;;5097115;28;20019;-57
2023/03/13 23:03:52;;;;;;;3.50;1.10;;;;;;;;;;5094004;28;20061;-57
2023/03/13 23:06:19;;;;;;;6.78;1.52;;;;;;;;;;5094242;28;20020;-57
2023/03/13 23:08:45;;;;;;;7.03;1.58;;;;;;;;;;5097474;28;20027;-56
2023/03/13 23:11:10;;;;;;;4.57;1.70;;;;;;;;;;5094927;28;20024;-56
2023/03/13 23:13:37;;;;;;;7.03;0.95;;;;;;;;;;5093286;28;20016;-57
2023/03/13 23:16:07;;;;;;;5.85;1.20;;;;;;;;;;5093195;28;20073;-58
2023/03/13 23:18:32;;;;;;;5.88;1.20;;;;;;;;;;5092611;28;20512;-56
2023/03/13 23:20:58;;;;;;;4.65;1.33;;;;;;;;;;5093387;28;20049;-56
2023/03/13 23:23:23;;;;;;;3.17;0.80;;;;;;;;;;5092839;28;20023;-56
2023/03/13 23:25:49;;;;;;;3.63;1.48;;;;;;;;;;5092889;28;20019;-56
2023/03/13 23:28:14;;;;;;;6.30;1.15;;;;;;;;;;5092882;28;20073;-56
2023/03/13 23:30:40;;;;;;;5.60;0.93;;;;;;;;;;5092926;28;20086;-56
2023/03/13 23:33:05;;;;;;;3.53;0.90;;;;;;;;;;5093728;28;20028;-56
2023/03/13 23:35:31;;;;;;;4.68;1.33;;;;;;;;;;5093811;28;20031;-56
2023/03/13 23:37:56;;;;;;;4.57;0.77;;;;;;;;;;5092791;28;20052;-57
2023/03/13 23:40:22;;;;;;;4.05;0.63;;;;;;;;;;5093813;28;20114;-56
2023/03/13 23:42:49;;;;;;;7.63;0.85;;;;;;;;;;5092423;28;20024;-56
2023/03/13 23:45:15;;;;;;;2.17;0.52;;;;;;;;;;5093249;28;20020;-65
2023/03/13 23:47:42;;;;;;;5.22;1.20;;;;;;;;;;5096205;28;20016;-57
2023/03/13 23:50:08;;;;;;;3.83;0.68;;;;;;;;;;5095662;28;20020;-57
2023/03/13 23:52:34;;;;;;;6.28;0.88;;;;;;;;;;5093690;28;20027;-57
2023/03/13 23:55:00;;;;;;;6.45;0.90;;;;;;;;;;5093300;28;20541;-58
2023/03/13 23:57:25;;;;;;;6.22;0.85;;;;;;;;;;5093743;28;20052;-56
2023/03/13 23:59:51;;;;;;;7.07;0.90;;;;;;;;;;5094157;28;20111;-57
